createdAt,value
2022-07-26T00:01:49.870Z,91966.06
2022-07-26T00:04:22.386Z,91969.75
2022-07-26T00:06:55.135Z,91959.25
2022-07-26T00:09:27.544Z,91962.66
2022-07-26T00:12:00.655Z,91963.34
2022-07-26T00:14:33.077Z,91963.84
2022-07-26T00:17:05.856Z,91960.44
2022-07-26T00:19:38.224Z,91955.38
2022-07-26T00:22:29.018Z,91969.06
2022-07-26T00:25:02.669Z,91961.22
2022-07-26T00:27:36.579Z,91963.66
2022-07-26T00:30:10.758Z,91961.56
2022-07-26T00:32:43.163Z,91959.13
2022-07-26T00:35:15.748Z,91955.72
2022-07-26T00:37:48.390Z,91961.16
2022-07-26T00:40:20.818Z,91956.41
2022-07-26T00:42:53.971Z,91951.34
2022-07-26T00:45:26.372Z,91940.72
2022-07-26T00:47:58.864Z,91953.84
2022-07-26T00:50:31.291Z,91944.47
2022-07-26T00:53:03.729Z,91952.88
2022-07-26T00:55:36.158Z,91943.47
2022-07-26T00:58:09.239Z,91945.84
2022-07-26T01:00:41.619Z,91945.84
2022-07-26T01:03:14.087Z,91941.97
2022-07-26T01:05:47.616Z,91947.59
2022-07-26T01:08:20.336Z,91943.91
2022-07-26T01:10:53.027Z,91945.09
2022-07-26T01:13:26.184Z,91943.34
2022-07-26T01:15:58.591Z,91944.19
2022-07-26T01:18:31.099Z,91934.81
2022-07-26T01:21:13.688Z,91937.66
2022-07-26T01:23:47.575Z,91942.38
2022-07-26T01:26:20.098Z,91945.25
2022-07-26T01:28:52.946Z,91942.22
2022-07-26T01:31:26.055Z,91946.47
2022-07-26T01:33:58.541Z,91931.56
2022-07-26T01:36:30.948Z,91941.22
2022-07-26T01:39:04.379Z,91924.91
2022-07-26T01:41:38.024Z,91929.44
2022-07-26T01:44:11.319Z,91924.84
2022-07-26T01:46:44.030Z,91921.28
2022-07-26T01:49:16.575Z,91936.41
2022-07-26T01:51:48.991Z,91926.34
2022-07-26T01:54:22.555Z,91939.09
2022-07-26T01:56:56.991Z,91939.47
2022-07-26T01:59:29.370Z,91939.56
2022-07-26T02:02:05.654Z,91941.13
2022-07-26T02:04:56.295Z,91944.16
2022-07-26T02:07:30.409Z,91938.41
2022-07-26T02:10:07.401Z,91940.53
2022-07-26T02:12:40.224Z,91938.97
2022-07-26T02:15:14.114Z,91945.44
2022-07-26T02:17:46.487Z,91949.84
2022-07-26T02:20:18.874Z,91945.25
2022-07-26T02:22:51.266Z,91945.09
2022-07-26T02:25:24.603Z,91950.09
2022-07-26T02:27:57.012Z,91946.03
2022-07-26T02:30:29.469Z,91947.47
2022-07-26T02:33:01.979Z,91940.50
2022-07-26T02:35:34.539Z,91945.34
2022-07-26T02:38:09.025Z,91948.03
2022-07-26T02:40:43.832Z,91944.94
2022-07-26T02:43:16.417Z,91950.97
2022-07-26T02:46:01.636Z,91948.03
2022-07-26T02:48:34.729Z,91954.22
2022-07-26T02:51:07.875Z,91956.75
2022-07-26T02:53:40.259Z,91951.88
2022-07-26T02:56:13.319Z,91953.25
2022-07-26T02:58:45.962Z,91956.13
2022-07-26T03:01:18.459Z,91950.97
2022-07-26T03:03:51.388Z,91955.22
2022-07-26T03:06:23.907Z,91957.63
2022-07-26T03:08:56.474Z,91951.41
2022-07-26T03:11:29.544Z,91958.56
2022-07-26T03:14:02.171Z,91956.06
2022-07-26T03:16:34.878Z,91954.22
2022-07-26T03:19:07.262Z,91953.47
2022-07-26T03:21:39.675Z,91956.75
2022-07-26T03:24:12.170Z,91963.63
2022-07-26T03:26:45.166Z,91963.88
2022-07-26T03:29:17.674Z,91969.09
2022-07-26T03:31:50.048Z,91963.56
2022-07-26T03:34:22.876Z,91963.78
2022-07-26T03:36:55.348Z,91960.66
2022-07-26T03:39:27.744Z,91960.09
2022-07-26T03:42:00.751Z,91957.38
2022-07-26T03:44:33.283Z,91958.88
2022-07-26T03:47:05.864Z,91960.84
2022-07-26T03:49:38.346Z,91954.56
2022-07-26T03:52:10.708Z,91961.53
2022-07-26T03:54:43.136Z,91958.97
2022-07-26T03:57:15.930Z,91955.38
2022-07-26T03:59:48.351Z,91951.84
2022-07-26T04:02:20.810Z,91955.13
2022-07-26T04:04:53.213Z,91960.91
2022-07-26T04:07:27.066Z,91952.72
2022-07-26T04:09:59.550Z,91956.91
2022-07-26T04:12:32.546Z,91950.28
2022-07-26T04:15:06.324Z,91949.53
2022-07-26T04:17:40.058Z,91950.81
2022-07-26T04:20:12.522Z,91954.22
2022-07-26T04:22:44.998Z,91943.81
2022-07-26T04:25:18.144Z,91940.78
2022-07-26T04:27:51.203Z,91948.44
2022-07-26T04:30:23.670Z,91938.91
2022-07-26T04:32:56.084Z,91934.69
2022-07-26T04:35:28.530Z,91940.22
2022-07-26T04:38:01.328Z,91942.44
2022-07-26T04:40:33.782Z,91935.03
2022-07-26T04:43:06.905Z,91936.06
2022-07-26T04:45:41.802Z,91940.75
2022-07-26T04:48:16.191Z,91945.16
2022-07-26T04:50:48.650Z,91943.88
2022-07-26T04:53:21.070Z,91944.72
2022-07-26T04:55:53.483Z,91948.47
2022-07-26T04:58:26.620Z,91950.75
2022-07-26T05:01:14.669Z,91941.69
2022-07-26T05:03:47.130Z,91929.94
2022-07-26T05:06:19.542Z,91943.44
2022-07-26T05:08:51.886Z,91941.91
2022-07-26T05:11:24.664Z,91946.00
2022-07-26T05:13:57.808Z,91937.59
2022-07-26T05:16:30.402Z,91941.97
2022-07-26T05:19:03.812Z,91933.50
2022-07-26T05:21:36.219Z,91934.91
2022-07-26T05:24:09.315Z,91935.06
2022-07-26T05:26:42.079Z,91942.28
2022-07-26T05:29:15.233Z,91944.41
2022-07-26T05:31:47.639Z,91937.50
2022-07-26T05:34:20.017Z,91944.16
2022-07-26T05:36:52.481Z,91938.78
2022-07-26T05:39:24.889Z,91937.94
2022-07-26T05:41:57.316Z,91939.63
2022-07-26T05:44:45.523Z,91935.75
2022-07-26T05:47:18.762Z,91935.19
2022-07-26T05:49:51.174Z,91930.47
2022-07-26T05:52:23.793Z,91929.94
2022-07-26T05:54:56.196Z,91925.56
2022-07-26T05:57:28.654Z,91921.19
2022-07-26T06:00:01.846Z,91928.97
2022-07-26T06:02:44.532Z,91926.81
2022-07-26T06:05:17.061Z,91918.59
2022-07-26T06:07:49.627Z,91917.94
2022-07-26T06:10:22.004Z,91919.16
2022-07-26T06:12:54.392Z,91917.69
2022-07-26T06:15:27.407Z,91912.78
2022-07-26T06:17:59.785Z,91918.88
2022-07-26T06:20:32.274Z,91913.56
2022-07-26T06:23:04.884Z,91909.34
2022-07-26T06:25:37.662Z,91911.22
2022-07-26T06:28:10.877Z,91915.38
2022-07-26T06:30:45.019Z,91906.91
2022-07-26T06:33:17.449Z,91906.22
2022-07-26T06:35:49.865Z,91915.31
2022-07-26T06:38:22.308Z,91909.50
2022-07-26T06:40:54.699Z,91910.97
2022-07-26T06:43:27.159Z,91905.94
2022-07-26T06:46:00.259Z,91907.38
2022-07-26T06:48:32.909Z,91912.59
2022-07-26T06:51:09.488Z,91914.84
2022-07-26T06:53:41.930Z,91908.97
2022-07-26T06:56:16.457Z,91904.94
2022-07-26T06:58:48.891Z,91905.50
2022-07-26T07:01:58.721Z,91908.31
2022-07-26T07:04:14.548Z,91903.84
2022-07-26T07:06:46.928Z,91907.78
2022-07-26T07:09:22.335Z,91907.94
2022-07-26T07:12:00.349Z,91914.69
2022-07-26T07:14:38.429Z,91910.69
2022-07-26T07:17:15.011Z,91910.84
2022-07-26T07:19:50.915Z,91911.38
2022-07-26T07:22:23.397Z,91909.28
2022-07-26T07:24:55.846Z,91908.63
2022-07-26T07:27:28.226Z,91904.47
2022-07-26T07:30:00.585Z,91912.06
2022-07-26T07:32:33.897Z,91898.63
2022-07-26T07:35:12.828Z,91919.44
2022-07-26T07:37:52.740Z,91910.97
2022-07-26T07:40:26.612Z,91905.59
2022-07-26T07:42:59.056Z,91910.50
2022-07-26T07:45:31.449Z,91909.16
2022-07-26T07:48:05.135Z,91909.47
2022-07-26T07:50:37.529Z,91902.38
2022-07-26T07:53:10.163Z,91896.38
2022-07-26T07:55:46.340Z,91910.41
2022-07-26T07:58:20.334Z,91903.53
2022-07-26T08:00:52.917Z,91902.56
2022-07-26T08:03:38.544Z,91894.19
2022-07-26T08:06:11.516Z,91890.72
2022-07-26T08:08:44.234Z,91888.41
2022-07-26T08:11:16.635Z,91894.03
2022-07-26T08:13:49.067Z,91893.78
2022-07-26T08:16:21.503Z,91893.44
2022-07-26T08:18:57.911Z,91890.34
2022-07-26T08:21:30.723Z,91892.88
2022-07-26T08:24:03.819Z,91894.88
2022-07-26T08:26:36.161Z,91885.44
2022-07-26T08:29:08.562Z,91886.41
2022-07-26T08:31:40.984Z,91882.31
2022-07-26T08:34:14.523Z,91886.75
2022-07-26T08:37:14.280Z,91882.00
2022-07-26T08:39:39.714Z,91879.53
2022-07-26T08:42:15.779Z,91882.19
2022-07-26T08:44:49.307Z,91889.53
2022-07-26T08:47:40.036Z,91884.47
2022-07-26T08:50:15.542Z,91883.28
2022-07-26T08:52:49.072Z,91885.00
2022-07-26T08:55:21.557Z,91886.94
2022-07-26T08:57:53.948Z,91876.47
2022-07-26T09:00:29.083Z,91885.31
2022-07-26T09:03:02.462Z,91882.75
2022-07-26T09:05:39.148Z,91878.28
2022-07-26T09:08:24.442Z,91879.50
2022-07-26T09:10:56.985Z,91878.50
2022-07-26T09:13:49.615Z,91891.38
2022-07-26T09:16:22.202Z,91885.16
2022-07-26T09:18:55.776Z,91873.94
2022-07-26T09:21:29.958Z,91886.03
2022-07-26T09:24:02.672Z,91887.91
2022-07-26T09:26:35.075Z,91884.88
2022-07-26T09:29:10.941Z,91883.41
2022-07-26T09:31:43.884Z,91881.56
2022-07-26T09:34:24.989Z,91878.59
2022-07-26T09:36:58.028Z,91879.06
2022-07-26T09:39:34.022Z,91874.88
2022-07-26T09:42:26.815Z,91879.91
2022-07-26T09:45:01.402Z,91884.25
2022-07-26T09:47:37.708Z,91873.81
2022-07-26T09:50:12.849Z,91882.19
2022-07-26T09:52:59.508Z,91875.94
2022-07-26T09:55:40.992Z,91876.50
2022-07-26T09:58:18.349Z,91860.81
2022-07-26T10:00:50.960Z,91868.50
2022-07-26T10:03:23.349Z,91865.69
2022-07-26T10:05:57.117Z,91862.56
2022-07-26T10:08:31.281Z,91868.28
2022-07-26T10:11:07.022Z,91849.88
2022-07-26T10:13:39.415Z,91860.38
2022-07-26T10:16:30.129Z,91863.47
2022-07-26T10:19:04.851Z,91853.53
2022-07-26T10:21:37.396Z,91852.88
2022-07-26T10:24:24.742Z,91850.03
2022-07-26T10:26:57.151Z,91849.09
2022-07-26T10:29:29.638Z,91844.38
2022-07-26T10:32:19.482Z,91842.25
2022-07-26T10:34:52.001Z,91850.16
2022-07-26T10:37:29.040Z,91845.00
2022-07-26T10:40:20.396Z,91838.41
2022-07-26T10:42:52.820Z,91837.00
2022-07-26T10:45:25.268Z,91829.31
2022-07-26T10:48:14.571Z,91835.81
2022-07-26T10:50:48.615Z,91828.09
2022-07-26T10:53:23.057Z,91831.16
2022-07-26T10:55:57.869Z,91821.03
2022-07-26T10:58:42.168Z,91824.25
2022-07-26T11:01:14.565Z,91810.25
2022-07-26T11:03:47.215Z,91817.78
2022-07-26T11:06:19.880Z,91810.75
2022-07-26T11:08:52.432Z,91802.06
2022-07-26T11:11:30.763Z,91800.91
2022-07-26T11:14:07.684Z,91800.38
2022-07-26T11:16:41.731Z,91803.91
2022-07-26T11:19:16.016Z,91792.19
2022-07-26T11:21:53.970Z,91784.63
2022-07-26T11:24:26.908Z,91776.53
2022-07-26T11:27:04.387Z,91784.03
2022-07-26T11:29:41.199Z,91780.88
2022-07-26T11:32:18.687Z,91778.69
2022-07-26T11:35:00.221Z,91775.84
2022-07-26T11:37:32.695Z,91765.94
2022-07-26T11:40:06.165Z,91765.16
2022-07-26T11:42:39.308Z,91759.03
2022-07-26T11:45:14.755Z,91762.72
2022-07-26T11:47:47.150Z,91758.16
2022-07-26T11:50:23.045Z,91755.34
2022-07-26T11:52:55.930Z,91759.53
2022-07-26T11:55:29.557Z,91762.72
2022-07-26T11:58:05.953Z,91757.22
2022-07-26T12:00:38.446Z,91755.25
2022-07-26T12:03:10.903Z,91760.63
2022-07-26T12:05:43.508Z,91751.28
2022-07-26T12:08:16.060Z,91748.94
2022-07-26T12:10:53.757Z,91750.19
2022-07-26T12:13:26.824Z,91747.06
2022-07-26T12:15:59.363Z,91747.63
2022-07-26T12:18:33.369Z,91733.22
2022-07-26T12:21:08.613Z,91739.19
2022-07-26T12:23:43.547Z,91739.56
2022-07-26T12:26:23.728Z,91727.69
2022-07-26T12:28:59.095Z,91741.56
2022-07-26T12:31:33.405Z,91726.38
2022-07-26T12:34:06.740Z,91731.34
2022-07-26T12:36:39.131Z,91733.56
2022-07-26T12:39:19.281Z,91729.88
2022-07-26T12:41:53.388Z,91732.34
2022-07-26T12:44:26.444Z,91726.97
2022-07-26T12:46:58.817Z,91724.69
2022-07-26T12:49:31.276Z,91726.16
2022-07-26T12:55:41.145Z,91725.69
2022-07-26T12:58:13.571Z,91717.72
2022-07-26T13:00:46.661Z,91715.13
2022-07-26T13:03:19.063Z,91709.38
2022-07-26T13:05:51.532Z,91705.16
2022-07-26T13:08:23.971Z,91714.16
2022-07-26T13:10:59.985Z,91711.41
2022-07-26T13:13:32.648Z,91700.59
2022-07-26T13:16:11.575Z,91703.72
2022-07-26T13:18:44.580Z,91697.13
2022-07-26T13:21:17.083Z,91698.16
2022-07-26T13:23:49.539Z,91695.75
2022-07-26T13:26:21.942Z,91694.69
2022-07-26T13:28:54.916Z,91695.47
2022-07-26T13:31:28.182Z,91695.63
2022-07-26T13:34:00.650Z,91696.78
2022-07-26T13:36:33.392Z,91697.84
2022-07-26T13:39:06.095Z,91692.91
2022-07-26T13:41:38.573Z,91696.94
2022-07-26T13:44:11.380Z,91688.41
2022-07-26T13:46:46.683Z,91693.66
2022-07-26T13:49:19.202Z,91685.25
2022-07-26T13:51:57.489Z,91675.81
2022-07-26T13:54:31.711Z,91676.84
2022-07-26T13:57:07.086Z,91684.06
2022-07-26T13:59:39.504Z,91678.50
2022-07-26T14:02:12.817Z,91672.06
2022-07-26T14:04:45.341Z,91688.25
2022-07-26T14:07:17.767Z,91675.19
2022-07-26T14:09:50.153Z,91675.94
2022-07-26T14:12:22.620Z,91673.84
2022-07-26T14:14:55.037Z,91668.13
2022-07-26T14:17:28.124Z,91671.75
2022-07-26T14:20:00.664Z,91675.94
2022-07-26T14:22:33.067Z,91676.56
2022-07-26T14:25:06.889Z,91675.94
2022-07-26T14:27:39.296Z,91678.94
2022-07-26T14:30:13.012Z,91672.44
2022-07-26T14:32:46.688Z,91668.38
2022-07-26T14:35:19.103Z,91673.94
2022-07-26T14:37:52.099Z,91665.84
2022-07-26T14:40:24.695Z,91661.19
2022-07-26T14:42:57.496Z,91671.69
2022-07-26T14:45:30.396Z,91666.91
2022-07-26T14:48:03.983Z,91671.09
2022-07-26T14:50:59.763Z,91669.31
2022-07-26T14:53:28.844Z,91669.63
2022-07-26T14:56:01.242Z,91665.25
2022-07-26T14:58:33.672Z,91663.91
2022-07-26T15:01:06.127Z,91662.56
2022-07-26T15:03:39.933Z,91659.97
2022-07-26T15:06:12.481Z,91659.25
2022-07-26T15:08:44.871Z,91658.19
2022-07-26T15:11:17.290Z,91658.19
2022-07-26T15:13:49.795Z,91651.75
2022-07-26T15:16:22.291Z,91651.44
2022-07-26T15:18:55.388Z,91648.59
2022-07-26T15:21:27.782Z,91650.97
2022-07-26T15:24:00.940Z,91650.34
2022-07-26T15:26:33.383Z,91652.44
2022-07-26T15:29:05.873Z,91654.69
2022-07-26T15:31:38.432Z,91648.25
2022-07-26T15:34:11.914Z,91646.75
2022-07-26T15:36:44.700Z,91643.59
2022-07-26T15:39:18.069Z,91649.00
2022-07-26T15:41:51.264Z,91640.56
2022-07-26T15:44:25.772Z,91641.78
2022-07-26T15:46:58.327Z,91642.28
2022-07-26T15:49:31.631Z,91640.91
2022-07-26T15:52:05.055Z,91647.06
2022-07-26T15:54:37.693Z,91632.78
2022-07-26T15:57:10.059Z,91639.19
2022-07-26T15:59:42.480Z,91644.44
2022-07-26T16:02:15.326Z,91645.81
2022-07-26T16:04:48.501Z,91648.88
2022-07-26T16:07:21.005Z,91647.97
2022-07-26T16:09:53.464Z,91646.47
2022-07-26T16:12:25.904Z,91650.47
2022-07-26T16:14:58.299Z,91658.38
2022-07-26T16:17:30.691Z,91648.16
2022-07-26T16:20:06.176Z,91649.91
2022-07-26T16:22:41.347Z,91650.69
2022-07-26T16:25:15.383Z,91653.00
2022-07-26T16:27:47.882Z,91666.41
2022-07-26T16:30:20.831Z,91666.56
2022-07-26T16:32:53.229Z,91661.50
2022-07-26T16:35:26.341Z,91660.47
2022-07-26T16:37:59.231Z,91667.13
2022-07-26T16:40:31.679Z,91664.22
2022-07-26T16:43:08.965Z,91666.31
2022-07-26T16:45:44.503Z,91665.66
2022-07-26T16:48:16.823Z,91670.28
2022-07-26T16:50:49.926Z,91672.88
2022-07-26T16:53:22.333Z,91671.47
2022-07-26T16:55:54.717Z,91675.25
2022-07-26T16:58:27.110Z,91674.03
2022-07-26T17:00:59.604Z,91675.09
2022-07-26T17:03:31.987Z,91682.09
2022-07-26T17:06:06.864Z,91673.81
2022-07-26T17:08:40.323Z,91671.00
2022-07-26T17:11:12.773Z,91670.13
2022-07-26T17:13:45.179Z,91669.78
2022-07-26T17:16:21.477Z,91678.84
2022-07-26T17:18:57.347Z,91674.28
2022-07-26T17:21:30.388Z,91676.41
2022-07-26T17:24:05.641Z,91679.84
2022-07-26T17:26:38.239Z,91677.78
2022-07-26T17:29:12.855Z,91680.56
2022-07-26T17:31:45.639Z,91678.22
2022-07-26T17:34:18.044Z,91674.19
2022-07-26T17:36:58.220Z,91680.91
2022-07-26T17:39:52.718Z,91679.97
2022-07-26T17:42:24.214Z,91681.16
2022-07-26T17:44:56.913Z,91682.09
2022-07-26T17:47:30.552Z,91683.41
2022-07-26T17:52:58.816Z,91679.66
2022-07-26T17:55:31.199Z,91688.53
2022-07-26T17:58:03.515Z,91681.06
2022-07-26T18:00:36.089Z,91684.69
2022-07-26T18:03:08.419Z,91692.88
2022-07-26T18:05:41.540Z,91696.09
2022-07-26T18:08:14.831Z,91697.41
2022-07-26T18:10:51.022Z,91698.34
2022-07-26T18:13:24.515Z,91695.53
2022-07-26T18:15:57.306Z,91709.66
2022-07-26T18:18:29.820Z,91711.22
2022-07-26T18:21:02.190Z,91709.00
2022-07-26T18:23:35.243Z,91712.19
2022-07-26T18:26:07.679Z,91717.34
2022-07-26T18:28:40.700Z,91729.69
2022-07-26T18:31:15.764Z,91724.84
2022-07-26T18:33:48.292Z,91727.00
2022-07-26T18:36:20.663Z,91724.47
2022-07-26T18:38:53.711Z,91728.00
2022-07-26T18:41:27.861Z,91726.97
2022-07-26T18:44:00.269Z,91731.75
2022-07-26T18:46:33.680Z,91725.09
2022-07-26T18:49:07.049Z,91722.53
2022-07-26T18:51:40.304Z,91732.91
2022-07-26T18:54:13.416Z,91730.00
2022-07-26T18:56:45.785Z,91732.00
2022-07-26T18:59:18.142Z,91735.50
2022-07-26T19:01:50.592Z,91738.75
2022-07-26T19:04:23.113Z,91736.16
2022-07-26T19:06:56.054Z,91739.25
2022-07-26T19:09:29.119Z,91739.66
2022-07-26T19:12:01.492Z,91737.00
2022-07-26T19:14:33.924Z,91740.94
2022-07-26T19:17:09.238Z,91745.91
2022-07-26T19:19:42.250Z,91745.28
2022-07-26T19:22:14.643Z,91741.44
2022-07-26T19:24:47.927Z,91734.31
2022-07-26T19:27:20.331Z,91730.31
2022-07-26T19:29:52.728Z,91727.69
2022-07-26T19:32:27.194Z,91727.81
2022-07-26T19:35:03.611Z,91725.56
2022-07-26T19:37:36.295Z,91730.91
2022-07-26T19:40:10.536Z,91730.53
2022-07-26T19:42:43.077Z,91719.44
2022-07-26T19:45:15.576Z,91728.97
2022-07-26T19:47:48.000Z,91730.97
2022-07-26T19:50:20.470Z,91727.63
2022-07-26T19:52:52.942Z,91719.19
2022-07-26T19:55:26.017Z,91722.59
2022-07-26T19:57:58.383Z,91722.66
2022-07-26T20:00:30.804Z,91724.94
2022-07-26T20:03:03.731Z,91725.28
2022-07-26T20:05:36.264Z,91716.56
2022-07-26T20:08:08.662Z,91726.47
2022-07-26T20:10:41.765Z,91724.56
2022-07-26T20:13:14.197Z,91721.13
2022-07-26T20:15:46.696Z,91722.31
2022-07-26T20:18:21.351Z,91725.75
2022-07-26T20:20:55.528Z,91724.97
2022-07-26T20:23:28.210Z,91731.44
2022-07-26T20:26:01.389Z,91731.03
2022-07-26T20:28:33.859Z,91732.16
2022-07-26T20:31:06.317Z,91730.31
2022-07-26T20:33:38.755Z,91721.19
2022-07-26T20:36:11.194Z,91742.50
2022-07-26T20:38:48.232Z,91739.09
2022-07-26T20:41:24.255Z,91744.78
2022-07-26T20:43:57.532Z,91742.91
2022-07-26T20:46:31.468Z,91745.59
2022-07-26T20:49:04.029Z,91746.31
2022-07-26T20:51:36.699Z,91741.78
2022-07-26T20:54:09.587Z,91748.22
2022-07-26T20:56:42.815Z,91760.41
2022-07-26T20:59:15.605Z,91755.06
2022-07-26T21:01:48.205Z,91754.69
2022-07-26T21:04:20.707Z,91753.91
2022-07-26T21:06:53.156Z,91744.03
2022-07-26T21:09:26.387Z,91765.28
2022-07-26T21:14:53.456Z,91759.56
2022-07-26T21:17:34.558Z,91755.34
2022-07-26T21:20:07.902Z,91765.25
2022-07-26T21:22:40.312Z,91763.31
2022-07-26T21:25:12.945Z,91763.72
2022-07-26T21:27:46.044Z,91770.56
2022-07-26T21:30:18.424Z,91771.25
2022-07-26T21:32:50.806Z,91770.47
2022-07-26T21:35:23.219Z,91772.38
2022-07-26T21:37:55.616Z,91779.59
2022-07-26T21:40:28.118Z,91775.41
2022-07-26T21:43:01.324Z,91763.66
2022-07-26T21:45:33.769Z,91773.09
2022-07-26T21:48:06.776Z,91773.47
2022-07-26T21:50:39.140Z,91776.13
2022-07-26T21:53:11.500Z,91763.22
2022-07-26T21:55:43.907Z,91771.56
2022-07-26T21:58:16.947Z,91766.50
2022-07-26T22:00:49.500Z,91751.69
2022-07-26T22:03:21.943Z,91767.63
2022-07-26T22:05:54.343Z,91767.22
2022-07-26T22:08:27.031Z,91771.03
2022-07-26T22:10:59.490Z,91767.19
2022-07-26T22:13:32.561Z,91770.59
2022-07-26T22:16:05.618Z,91767.19
2022-07-26T22:18:38.048Z,91770.56
2022-07-26T22:21:10.440Z,91767.91
2022-07-26T22:23:42.910Z,91777.28
2022-07-26T22:26:15.552Z,91778.81
2022-07-26T22:28:48.604Z,91779.19
2022-07-26T22:31:21.015Z,91775.75
2022-07-26T22:33:53.470Z,91769.66
2022-07-26T22:36:25.851Z,91779.09
2022-07-26T22:38:58.231Z,91774.91
2022-07-26T22:41:32.606Z,91768.13
2022-07-26T22:44:07.005Z,91769.53
2022-07-26T22:46:39.409Z,91774.84
2022-07-26T22:49:12.383Z,91772.94
2022-07-26T22:51:47.576Z,91775.59
2022-07-26T22:54:19.975Z,91770.59
2022-07-26T22:56:52.420Z,91770.63
2022-07-26T22:59:25.499Z,91779.69
2022-07-26T23:01:57.887Z,91778.50
2022-07-26T23:04:30.292Z,91778.16
2022-07-26T23:07:03.423Z,91786.81
2022-07-26T23:09:36.982Z,91778.47
2022-07-26T23:12:09.872Z,91781.50
2022-07-26T23:14:42.913Z,91780.34
2022-07-26T23:17:15.467Z,91783.38
2022-07-26T23:19:47.953Z,91784.09
2022-07-26T23:22:20.432Z,91782.19
2022-07-26T23:24:52.830Z,91784.78
2022-07-26T23:27:25.274Z,91778.75
2022-07-26T23:29:58.366Z,91790.44
2022-07-26T23:32:30.764Z,91782.47
2022-07-26T23:35:03.637Z,91786.56
2022-07-26T23:37:36.027Z,91788.06
2022-07-26T23:40:10.060Z,91781.59
2022-07-26T23:42:42.401Z,91776.28
2022-07-26T23:45:15.436Z,91777.78
2022-07-26T23:47:47.931Z,91778.91
2022-07-26T23:50:20.409Z,91783.47
2022-07-26T23:52:52.804Z,91779.69
2022-07-26T23:55:25.212Z,91782.31
2022-07-26T23:57:57.644Z,91772.78
